sensor_id;sensor_type;location;lat;lon;timestamp;temperature;humidity
20658;DHT22;10488;50.846;4.078;2022-08-19T00:01:21;20.30;99.90
20658;DHT22;10488;50.846;4.078;2022-08-19T00:03:48;20.40;99.90
20658;DHT22;10488;50.846;4.078;2022-08-19T00:06:14;20.50;99.90
20658;DHT22;10488;50.846;4.078;2022-08-19T00:08:40;20.60;99.90
20658;DHT22;10488;50.846;4.078;2022-08-19T00:11:06;20.60;99.90
20658;DHT22;10488;50.846;4.078;2022-08-19T00:13:33;20.70;99.90
20658;DHT22;10488;50.846;4.078;2022-08-19T00:15:59;20.60;99.90
20658;DHT22;10488;50.846;4.078;2022-08-19T00:18:26;20.70;99.90
20658;DHT22;10488;50.846;4.078;2022-08-19T00:20:52;20.70;99.90
20658;DHT22;10488;50.846;4.078;2022-08-19T00:23:18;20.70;99.90
20658;DHT22;10488;50.846;4.078;2022-08-19T00:25:44;20.50;99.90
20658;DHT22;10488;50.846;4.078;2022-08-19T00:28:10;20.40;99.90
20658;DHT22;10488;50.846;4.078;2022-08-19T00:30:36;20.30;99.90
20658;DHT22;10488;50.846;4.078;2022-08-19T00:33:02;20.20;99.90
20658;DHT22;10488;50.846;4.078;2022-08-19T00:35:27;20.00;99.90
20658;DHT22;10488;50.846;4.078;2022-08-19T00:37:53;20.00;99.90
20658;DHT22;10488;50.846;4.078;2022-08-19T00:40:20;20.00;99.90
20658;DHT22;10488;50.846;4.078;2022-08-19T00:42:46;19.90;99.90
20658;DHT22;10488;50.846;4.078;2022-08-19T00:45:15;19.70;99.90
20658;DHT22;10488;50.846;4.078;2022-08-19T00:47:43;19.70;99.90
20658;DHT22;10488;50.846;4.078;2022-08-19T00:50:11;19.60;99.90
20658;DHT22;10488;50.846;4.078;2022-08-19T00:52:41;19.50;99.90
20658;DHT22;10488;50.846;4.078;2022-08-19T00:55:09;19.50;99.90
20658;DHT22;10488;50.846;4.078;2022-08-19T00:57:39;19.40;99.90
20658;DHT22;10488;50.846;4.078;2022-08-19T01:00:11;19.40;99.90
20658;DHT22;10488;50.846;4.078;2022-08-19T01:02:39;19.50;99.90
20658;DHT22;10488;50.846;4.078;2022-08-19T01:05:09;19.40;99.90
20658;DHT22;10488;50.846;4.078;2022-08-19T01:07:38;19.50;99.90
20658;DHT22;10488;50.846;4.078;2022-08-19T01:10:07;19.30;99.90
20658;DHT22;10488;50.846;4.078;2022-08-19T01:12:33;19.10;99.90
20658;DHT22;10488;50.846;4.078;2022-08-19T01:15:00;19.10;99.90
20658;DHT22;10488;50.846;4.078;2022-08-19T01:17:26;19.10;99.90
20658;DHT22;10488;50.846;4.078;2022-08-19T01:19:52;18.90;99.90
20658;DHT22;10488;50.846;4.078;2022-08-19T01:24:50;18.90;99.90
20658;DHT22;10488;50.846;4.078;2022-08-19T01:27:17;18.90;99.90
20658;DHT22;10488;50.846;4.078;2022-08-19T01:29:43;18.90;99.90
20658;DHT22;10488;50.846;4.078;2022-08-19T01:32:13;18.80;99.90
20658;DHT22;10488;50.846;4.078;2022-08-19T01:34:42;18.70;99.90
20658;DHT22;10488;50.846;4.078;2022-08-19T01:37:10;18.70;99.90
20658;DHT22;10488;50.846;4.078;2022-08-19T01:39:39;18.70;99.90
20658;DHT22;10488;50.846;4.078;2022-08-19T01:42:05;18.60;99.90
20658;DHT22;10488;50.846;4.078;2022-08-19T01:44:33;18.40;99.90
20658;DHT22;10488;50.846;4.078;2022-08-19T01:46:58;18.40;99.90
20658;DHT22;10488;50.846;4.078;2022-08-19T01:49:25;18.40;99.90
20658;DHT22;10488;50.846;4.078;2022-08-19T01:51:52;18.40;99.90
20658;DHT22;10488;50.846;4.078;2022-08-19T01:54:20;18.20;99.90
20658;DHT22;10488;50.846;4.078;2022-08-19T01:56:46;18.40;99.90
20658;DHT22;10488;50.846;4.078;2022-08-19T01:59:19;18.30;99.90
20658;DHT22;10488;50.846;4.078;2022-08-19T02:01:46;18.30;99.90
20658;DHT22;10488;50.846;4.078;2022-08-19T02:04:11;18.20;99.90
20658;DHT22;10488;50.846;4.078;2022-08-19T02:06:37;18.10;99.90
20658;DHT22;10488;50.846;4.078;2022-08-19T02:09:05;18.00;99.90
20658;DHT22;10488;50.846;4.078;2022-08-19T02:11:33;18.00;99.90
20658;DHT22;10488;50.846;4.078;2022-08-19T02:14:00;17.90;99.90
20658;DHT22;10488;50.846;4.078;2022-08-19T02:16:27;17.90;99.90
20658;DHT22;10488;50.846;4.078;2022-08-19T02:18:53;17.90;99.90
20658;DHT22;10488;50.846;4.078;2022-08-19T02:21:21;17.90;99.90
20658;DHT22;10488;50.846;4.078;2022-08-19T02:23:47;17.90;99.90
20658;DHT22;10488;50.846;4.078;2022-08-19T02:26:13;17.90;99.90
20658;DHT22;10488;50.846;4.078;2022-08-19T02:28:40;17.90;99.90
20658;DHT22;10488;50.846;4.078;2022-08-19T02:31:14;17.90;99.90
20658;DHT22;10488;50.846;4.078;2022-08-19T02:33:41;17.80;99.90
20658;DHT22;10488;50.846;4.078;2022-08-19T02:36:07;17.90;99.90
20658;DHT22;10488;50.846;4.078;2022-08-19T02:38:34;17.80;99.90
20658;DHT22;10488;50.846;4.078;2022-08-19T02:41:06;17.80;99.90
20658;DHT22;10488;50.846;4.078;2022-08-19T02:43:33;17.90;99.90
20658;DHT22;10488;50.846;4.078;2022-08-19T02:46:30;17.80;99.90
20658;DHT22;10488;50.846;4.078;2022-08-19T02:48:59;17.90;99.90
20658;DHT22;10488;50.846;4.078;2022-08-19T02:51:29;17.80;99.90
20658;DHT22;10488;50.846;4.078;2022-08-19T02:53:55;17.90;99.90
20658;DHT22;10488;50.846;4.078;2022-08-19T02:56:22;17.80;99.90
20658;DHT22;10488;50.846;4.078;2022-08-19T02:58:49;17.80;99.90
20658;DHT22;10488;50.846;4.078;2022-08-19T03:01:27;17.60;99.90
20658;DHT22;10488;50.846;4.078;2022-08-19T03:03:54;17.40;99.90
20658;DHT22;10488;50.846;4.078;2022-08-19T03:06:21;17.30;99.90
20658;DHT22;10488;50.846;4.078;2022-08-19T03:08:47;17.40;99.90
20658;DHT22;10488;50.846;4.078;2022-08-19T03:11:20;17.50;99.90
20658;DHT22;10488;50.846;4.078;2022-08-19T03:13:47;17.50;99.90
20658;DHT22;10488;50.846;4.078;2022-08-19T03:16:18;17.50;99.90
20658;DHT22;10488;50.846;4.078;2022-08-19T03:18:44;17.50;99.90
20658;DHT22;10488;50.846;4.078;2022-08-19T03:21:17;17.40;99.90
20658;DHT22;10488;50.846;4.078;2022-08-19T03:23:43;17.30;99.90
20658;DHT22;10488;50.846;4.078;2022-08-19T03:26:09;17.20;99.90
20658;DHT22;10488;50.846;4.078;2022-08-19T03:28:35;17.10;99.90
20658;DHT22;10488;50.846;4.078;2022-08-19T03:31:05;17.00;99.90
20658;DHT22;10488;50.846;4.078;2022-08-19T03:33:33;17.10;99.90
20658;DHT22;10488;50.846;4.078;2022-08-19T03:36:07;17.00;99.90
20658;DHT22;10488;50.846;4.078;2022-08-19T03:38:47;17.00;99.90
20658;DHT22;10488;50.846;4.078;2022-08-19T03:41:16;17.10;99.90
20658;DHT22;10488;50.846;4.078;2022-08-19T03:43:43;17.00;99.90
20658;DHT22;10488;50.846;4.078;2022-08-19T03:46:13;17.00;99.90
20658;DHT22;10488;50.846;4.078;2022-08-19T03:48:40;16.90;99.90
20658;DHT22;10488;50.846;4.078;2022-08-19T03:51:07;16.90;99.90
20658;DHT22;10488;50.846;4.078;2022-08-19T03:53:34;16.70;99.90
20658;DHT22;10488;50.846;4.078;2022-08-19T03:56:01;16.80;99.90
20658;DHT22;10488;50.846;4.078;2022-08-19T03:58:28;16.80;99.90
20658;DHT22;10488;50.846;4.078;2022-08-19T04:00:56;16.60;99.90
20658;DHT22;10488;50.846;4.078;2022-08-19T04:03:23;16.60;99.90
20658;DHT22;10488;50.846;4.078;2022-08-19T04:05:49;16.60;99.90
20658;DHT22;10488;50.846;4.078;2022-08-19T04:08:15;16.60;99.90
20658;DHT22;10488;50.846;4.078;2022-08-19T04:10:44;16.60;99.90
20658;DHT22;10488;50.846;4.078;2022-08-19T04:13:10;16.60;99.90
20658;DHT22;10488;50.846;4.078;2022-08-19T04:15:40;16.70;99.90
20658;DHT22;10488;50.846;4.078;2022-08-19T04:18:10;16.70;99.90
20658;DHT22;10488;50.846;4.078;2022-08-19T04:20:44;16.70;99.90
20658;DHT22;10488;50.846;4.078;2022-08-19T04:23:12;16.70;99.90
20658;DHT22;10488;50.846;4.078;2022-08-19T04:25:40;16.60;99.90
20658;DHT22;10488;50.846;4.078;2022-08-19T04:28:06;16.50;99.90
20658;DHT22;10488;50.846;4.078;2022-08-19T04:30:41;16.50;99.90
20658;DHT22;10488;50.846;4.078;2022-08-19T04:33:07;16.50;99.90
20658;DHT22;10488;50.846;4.078;2022-08-19T04:35:38;16.50;99.90
20658;DHT22;10488;50.846;4.078;2022-08-19T04:38:05;16.40;99.90
20658;DHT22;10488;50.846;4.078;2022-08-19T04:40:31;16.40;99.90
20658;DHT22;10488;50.846;4.078;2022-08-19T04:43:15;16.50;99.90
20658;DHT22;10488;50.846;4.078;2022-08-19T04:45:43;16.50;99.90
20658;DHT22;10488;50.846;4.078;2022-08-19T04:48:09;16.50;99.90
20658;DHT22;10488;50.846;4.078;2022-08-19T04:50:35;16.30;99.90
20658;DHT22;10488;50.846;4.078;2022-08-19T04:53:01;16.20;99.90
20658;DHT22;10488;50.846;4.078;2022-08-19T04:55:26;16.20;99.90
20658;DHT22;10488;50.846;4.078;2022-08-19T04:57:53;16.30;99.90
20658;DHT22;10488;50.846;4.078;2022-08-19T05:00:19;16.30;99.90
20658;DHT22;10488;50.846;4.078;2022-08-19T05:02:44;16.30;99.90
20658;DHT22;10488;50.846;4.078;2022-08-19T05:05:10;16.30;99.90
20658;DHT22;10488;50.846;4.078;2022-08-19T05:07:36;16.40;99.90
20658;DHT22;10488;50.846;4.078;2022-08-19T05:10:04;16.30;99.90
20658;DHT22;10488;50.846;4.078;2022-08-19T05:12:30;16.30;99.90
20658;DHT22;10488;50.846;4.078;2022-08-19T05:14:58;16.30;99.90
20658;DHT22;10488;50.846;4.078;2022-08-19T05:17:27;16.40;99.90
20658;DHT22;10488;50.846;4.078;2022-08-19T05:19:53;16.50;99.90
20658;DHT22;10488;50.846;4.078;2022-08-19T05:22:37;16.60;99.90
20658;DHT22;10488;50.846;4.078;2022-08-19T05:25:06;16.60;99.90
20658;DHT22;10488;50.846;4.078;2022-08-19T05:27:32;16.60;99.90
20658;DHT22;10488;50.846;4.078;2022-08-19T05:29:58;16.70;99.90
20658;DHT22;10488;50.846;4.078;2022-08-19T05:32:24;16.80;99.90
20658;DHT22;10488;50.846;4.078;2022-08-19T05:34:50;16.90;99.90
20658;DHT22;10488;50.846;4.078;2022-08-19T05:37:16;17.00;99.90
20658;DHT22;10488;50.846;4.078;2022-08-19T05:39:42;17.00;99.90
20658;DHT22;10488;50.846;4.078;2022-08-19T05:42:10;17.30;99.90
20658;DHT22;10488;50.846;4.078;2022-08-19T05:44:39;17.80;99.90
20658;DHT22;10488;50.846;4.078;2022-08-19T05:47:10;18.30;99.90
20658;DHT22;10488;50.846;4.078;2022-08-19T05:49:37;18.70;99.90
20658;DHT22;10488;50.846;4.078;2022-08-19T05:52:05;19.20;99.90
20658;DHT22;10488;50.846;4.078;2022-08-19T05:54:31;19.40;99.90
20658;DHT22;10488;50.846;4.078;2022-08-19T05:56:56;19.60;99.90
20658;DHT22;10488;50.846;4.078;2022-08-19T05:59:22;19.90;99.90
20658;DHT22;10488;50.846;4.078;2022-08-19T06:01:50;20.20;99.90
20658;DHT22;10488;50.846;4.078;2022-08-19T06:04:20;20.50;99.90
20658;DHT22;10488;50.846;4.078;2022-08-19T06:06:50;20.70;99.90
20658;DHT22;10488;50.846;4.078;2022-08-19T06:09:17;21.30;99.90
20658;DHT22;10488;50.846;4.078;2022-08-19T06:11:52;21.60;99.90
20658;DHT22;10488;50.846;4.078;2022-08-19T06:14:26;21.90;99.90
20658;DHT22;10488;50.846;4.078;2022-08-19T06:16:52;21.80;99.90
20658;DHT22;10488;50.846;4.078;2022-08-19T06:19:19;21.50;99.90
20658;DHT22;10488;50.846;4.078;2022-08-19T06:21:48;21.10;99.90
20658;DHT22;10488;50.846;4.078;2022-08-19T06:24:16;21.00;99.90
20658;DHT22;10488;50.846;4.078;2022-08-19T06:26:45;20.40;99.90
20658;DHT22;10488;50.846;4.078;2022-08-19T06:29:13;20.50;99.90
20658;DHT22;10488;50.846;4.078;2022-08-19T06:31:44;20.50;99.90
20658;DHT22;10488;50.846;4.078;2022-08-19T06:34:11;20.60;99.90
20658;DHT22;10488;50.846;4.078;2022-08-19T06:36:43;20.30;99.90
20658;DHT22;10488;50.846;4.078;2022-08-19T06:39:15;19.90;99.90
20658;DHT22;10488;50.846;4.078;2022-08-19T06:41:44;19.90;99.90
20658;DHT22;10488;50.846;4.078;2022-08-19T06:44:11;20.20;99.90
20658;DHT22;10488;50.846;4.078;2022-08-19T06:46:38;20.90;99.90
20658;DHT22;10488;50.846;4.078;2022-08-19T06:49:04;21.20;99.90
20658;DHT22;10488;50.846;4.078;2022-08-19T06:51:30;21.30;99.90
20658;DHT22;10488;50.846;4.078;2022-08-19T06:53:58;21.00;99.90
20658;DHT22;10488;50.846;4.078;2022-08-19T06:56:27;20.70;99.90
20658;DHT22;10488;50.846;4.078;2022-08-19T06:59:09;20.90;99.90
20658;DHT22;10488;50.846;4.078;2022-08-19T07:01:37;21.00;99.90
20658;DHT22;10488;50.846;4.078;2022-08-19T07:04:06;20.90;99.90
20658;DHT22;10488;50.846;4.078;2022-08-19T07:06:32;21.00;99.90
20658;DHT22;10488;50.846;4.078;2022-08-19T07:08:58;20.70;99.90
20658;DHT22;10488;50.846;4.078;2022-08-19T07:11:24;20.50;99.90
20658;DHT22;10488;50.846;4.078;2022-08-19T07:13:50;21.10;99.90
20658;DHT22;10488;50.846;4.078;2022-08-19T07:16:18;21.10;99.90
20658;DHT22;10488;50.846;4.078;2022-08-19T07:18:48;21.20;99.90
20658;DHT22;10488;50.846;4.078;2022-08-19T07:21:24;21.30;99.90
20658;DHT22;10488;50.846;4.078;2022-08-19T07:23:53;21.30;99.90
20658;DHT22;10488;50.846;4.078;2022-08-19T07:26:31;21.10;99.90
20658;DHT22;10488;50.846;4.078;2022-08-19T07:28:58;21.20;99.90
20658;DHT22;10488;50.846;4.078;2022-08-19T07:31:25;21.50;99.90
20658;DHT22;10488;50.846;4.078;2022-08-19T07:33:52;21.60;99.90
20658;DHT22;10488;50.846;4.078;2022-08-19T07:36:24;21.60;99.90
20658;DHT22;10488;50.846;4.078;2022-08-19T07:38:51;21.70;99.90
20658;DHT22;10488;50.846;4.078;2022-08-19T07:41:24;21.50;99.90
20658;DHT22;10488;50.846;4.078;2022-08-19T07:43:51;21.50;99.90
20658;DHT22;10488;50.846;4.078;2022-08-19T07:46:18;21.80;99.90
20658;DHT22;10488;50.846;4.078;2022-08-19T07:48:46;21.80;99.90
20658;DHT22;10488;50.846;4.078;2022-08-19T07:51:14;21.80;99.90
20658;DHT22;10488;50.846;4.078;2022-08-19T07:53:41;22.00;99.90
20658;DHT22;10488;50.846;4.078;2022-08-19T07:56:07;22.10;99.90
20658;DHT22;10488;50.846;4.078;2022-08-19T07:58:35;22.30;99.90
20658;DHT22;10488;50.846;4.078;2022-08-19T08:01:04;22.50;99.90
20658;DHT22;10488;50.846;4.078;2022-08-19T08:03:30;22.40;99.90
20658;DHT22;10488;50.846;4.078;2022-08-19T08:06:16;22.20;99.90
20658;DHT22;10488;50.846;4.078;2022-08-19T08:09:03;22.50;99.90
20658;DHT22;10488;50.846;4.078;2022-08-19T08:11:44;22.50;99.90
20658;DHT22;10488;50.846;4.078;2022-08-19T08:14:16;22.30;99.90
20658;DHT22;10488;50.846;4.078;2022-08-19T08:16:42;22.30;99.90
20658;DHT22;10488;50.846;4.078;2022-08-19T08:19:10;22.30;99.90
20658;DHT22;10488;50.846;4.078;2022-08-19T08:21:36;22.40;99.90
20658;DHT22;10488;50.846;4.078;2022-08-19T08:24:01;22.60;99.90
20658;DHT22;10488;50.846;4.078;2022-08-19T08:26:27;22.60;99.90
20658;DHT22;10488;50.846;4.078;2022-08-19T08:28:53;22.40;99.90
20658;DHT22;10488;50.846;4.078;2022-08-19T08:31:19;22.50;99.90
20658;DHT22;10488;50.846;4.078;2022-08-19T08:33:46;22.70;99.90
20658;DHT22;10488;50.846;4.078;2022-08-19T08:36:13;22.70;99.90
20658;DHT22;10488;50.846;4.078;2022-08-19T08:38:40;22.70;99.90
20658;DHT22;10488;50.846;4.078;2022-08-19T08:43:56;22.70;99.90
20658;DHT22;10488;50.846;4.078;2022-08-19T08:46:38;22.10;99.90
20658;DHT22;10488;50.846;4.078;2022-08-19T08:49:39;22.20;99.90
20658;DHT22;10488;50.846;4.078;2022-08-19T08:52:11;22.00;99.90
20658;DHT22;10488;50.846;4.078;2022-08-19T08:54:46;22.20;99.90
20658;DHT22;10488;50.846;4.078;2022-08-19T08:57:26;22.40;99.90
20658;DHT22;10488;50.846;4.078;2022-08-19T08:59:54;22.60;99.90
20658;DHT22;10488;50.846;4.078;2022-08-19T09:02:22;22.80;99.90
20658;DHT22;10488;50.846;4.078;2022-08-19T09:04:48;22.60;99.90
20658;DHT22;10488;50.846;4.078;2022-08-19T09:16:14;22.60;99.90
20658;DHT22;10488;50.846;4.078;2022-08-19T09:18:46;22.10;99.90
20658;DHT22;10488;50.846;4.078;2022-08-19T09:21:14;22.30;99.90
20658;DHT22;10488;50.846;4.078;2022-08-19T09:23:40;22.40;99.90
20658;DHT22;10488;50.846;4.078;2022-08-19T09:26:11;22.10;99.90
20658;DHT22;10488;50.846;4.078;2022-08-19T09:28:40;22.20;99.90
20658;DHT22;10488;50.846;4.078;2022-08-19T09:31:10;22.40;99.90
20658;DHT22;10488;50.846;4.078;2022-08-19T09:33:36;22.70;99.90
20658;DHT22;10488;50.846;4.078;2022-08-19T09:36:07;22.60;99.90
20658;DHT22;10488;50.846;4.078;2022-08-19T09:38:34;22.70;99.90
20658;DHT22;10488;50.846;4.078;2022-08-19T09:41:08;22.90;99.90
20658;DHT22;10488;50.846;4.078;2022-08-19T09:43:39;22.70;99.90
20658;DHT22;10488;50.846;4.078;2022-08-19T09:46:07;22.70;99.90
20658;DHT22;10488;50.846;4.078;2022-08-19T09:48:35;22.70;99.90
20658;DHT22;10488;50.846;4.078;2022-08-19T09:51:05;22.50;99.90
20658;DHT22;10488;50.846;4.078;2022-08-19T09:53:32;22.60;99.90
20658;DHT22;10488;50.846;4.078;2022-08-19T09:55:57;22.80;99.90
20658;DHT22;10488;50.846;4.078;2022-08-19T09:58:23;23.00;99.90
20658;DHT22;10488;50.846;4.078;2022-08-19T10:00:54;22.60;99.90
20658;DHT22;10488;50.846;4.078;2022-08-19T10:03:20;22.50;99.90
20658;DHT22;10488;50.846;4.078;2022-08-19T10:05:46;22.70;99.90
20658;DHT22;10488;50.846;4.078;2022-08-19T10:08:17;22.70;99.90
20658;DHT22;10488;50.846;4.078;2022-08-19T10:10:44;22.50;99.90
20658;DHT22;10488;50.846;4.078;2022-08-19T10:13:10;22.60;99.90
20658;DHT22;10488;50.846;4.078;2022-08-19T10:15:36;22.60;99.90
20658;DHT22;10488;50.846;4.078;2022-08-19T10:18:05;22.80;99.90
20658;DHT22;10488;50.846;4.078;2022-08-19T10:20:30;22.90;99.90
20658;DHT22;10488;50.846;4.078;2022-08-19T10:22:56;22.50;99.90
20658;DHT22;10488;50.846;4.078;2022-08-19T10:25:24;22.50;99.90
20658;DHT22;10488;50.846;4.078;2022-08-19T10:27:51;22.60;99.90
20658;DHT22;10488;50.846;4.078;2022-08-19T10:30:17;23.20;99.90
20658;DHT22;10488;50.846;4.078;2022-08-19T10:32:43;23.90;99.90
20658;DHT22;10488;50.846;4.078;2022-08-19T10:35:09;24.40;99.90
20658;DHT22;10488;50.846;4.078;2022-08-19T10:37:36;24.50;99.90
20658;DHT22;10488;50.846;4.078;2022-08-19T10:40:07;24.50;99.90
20658;DHT22;10488;50.846;4.078;2022-08-19T10:42:34;24.70;99.90
20658;DHT22;10488;50.846;4.078;2022-08-19T10:45:00;24.60;99.90
20658;DHT22;10488;50.846;4.078;2022-08-19T10:47:26;23.90;99.90
20658;DHT22;10488;50.846;4.078;2022-08-19T10:49:53;23.80;99.90
20658;DHT22;10488;50.846;4.078;2022-08-19T10:52:39;24.10;99.90
20658;DHT22;10488;50.846;4.078;2022-08-19T10:55:06;24.40;99.90
20658;DHT22;10488;50.846;4.078;2022-08-19T10:57:51;24.10;99.90
20658;DHT22;10488;50.846;4.078;2022-08-19T11:00:21;24.00;99.90
20658;DHT22;10488;50.846;4.078;2022-08-19T11:02:48;23.90;99.90
20658;DHT22;10488;50.846;4.078;2022-08-19T11:05:15;24.30;99.90
20658;DHT22;10488;50.846;4.078;2022-08-19T11:07:41;23.90;99.90
20658;DHT22;10488;50.846;4.078;2022-08-19T11:10:09;23.90;99.90
20658;DHT22;10488;50.846;4.078;2022-08-19T11:12:39;24.30;99.90
20658;DHT22;10488;50.846;4.078;2022-08-19T11:15:09;24.70;99.90
20658;DHT22;10488;50.846;4.078;2022-08-19T11:17:38;25.00;99.90
20658;DHT22;10488;50.846;4.078;2022-08-19T11:20:10;25.00;99.90
20658;DHT22;10488;50.846;4.078;2022-08-19T11:22:36;24.70;99.90
20658;DHT22;10488;50.846;4.078;2022-08-19T11:25:02;25.00;99.90
20658;DHT22;10488;50.846;4.078;2022-08-19T11:27:28;25.40;99.90
20658;DHT22;10488;50.846;4.078;2022-08-19T11:29:54;25.60;99.90
20658;DHT22;10488;50.846;4.078;2022-08-19T11:32:19;25.80;99.90
20658;DHT22;10488;50.846;4.078;2022-08-19T11:34:45;25.40;99.90
20658;DHT22;10488;50.846;4.078;2022-08-19T11:37:11;25.40;99.90
20658;DHT22;10488;50.846;4.078;2022-08-19T11:39:37;25.00;99.90
20658;DHT22;10488;50.846;4.078;2022-08-19T11:42:05;25.10;99.90
20658;DHT22;10488;50.846;4.078;2022-08-19T11:44:52;25.20;99.90
20658;DHT22;10488;50.846;4.078;2022-08-19T11:47:17;25.10;99.90
20658;DHT22;10488;50.846;4.078;2022-08-19T11:49:43;25.40;99.90
20658;DHT22;10488;50.846;4.078;2022-08-19T11:52:09;25.30;99.90
20658;DHT22;10488;50.846;4.078;2022-08-19T11:54:35;25.20;99.90
20658;DHT22;10488;50.846;4.078;2022-08-19T11:57:03;25.40;99.90
20658;DHT22;10488;50.846;4.078;2022-08-19T11:59:29;25.60;99.90
20658;DHT22;10488;50.846;4.078;2022-08-19T12:01:55;25.50;99.90
20658;DHT22;10488;50.846;4.078;2022-08-19T12:04:21;25.80;99.90
20658;DHT22;10488;50.846;4.078;2022-08-19T12:06:47;25.70;99.90
20658;DHT22;10488;50.846;4.078;2022-08-19T12:09:13;25.20;99.90
20658;DHT22;10488;50.846;4.078;2022-08-19T12:11:41;25.40;99.90
20658;DHT22;10488;50.846;4.078;2022-08-19T12:14:10;25.40;99.90
20658;DHT22;10488;50.846;4.078;2022-08-19T12:16:37;25.20;99.90
20658;DHT22;10488;50.846;4.078;2022-08-19T12:19:04;25.40;99.90
20658;DHT22;10488;50.846;4.078;2022-08-19T12:21:31;25.30;99.90
20658;DHT22;10488;50.846;4.078;2022-08-19T12:23:59;25.00;99.90
20658;DHT22;10488;50.846;4.078;2022-08-19T12:26:26;25.40;99.90
20658;DHT22;10488;50.846;4.078;2022-08-19T12:28:52;25.90;99.90
20658;DHT22;10488;50.846;4.078;2022-08-19T12:31:18;26.10;99.90
20658;DHT22;10488;50.846;4.078;2022-08-19T12:33:45;25.90;99.90
20658;DHT22;10488;50.846;4.078;2022-08-19T12:36:13;25.80;99.90
20658;DHT22;10488;50.846;4.078;2022-08-19T12:38:40;25.80;99.90
20658;DHT22;10488;50.846;4.078;2022-08-19T12:41:09;25.50;99.90
20658;DHT22;10488;50.846;4.078;2022-08-19T12:43:36;25.80;99.90
20658;DHT22;10488;50.846;4.078;2022-08-19T12:46:04;25.30;99.90
20658;DHT22;10488;50.846;4.078;2022-08-19T12:48:31;25.60;99.90
20658;DHT22;10488;50.846;4.078;2022-08-19T12:50:57;25.40;99.90
20658;DHT22;10488;50.846;4.078;2022-08-19T12:53:23;25.30;99.90
20658;DHT22;10488;50.846;4.078;2022-08-19T12:55:55;25.30;99.90
20658;DHT22;10488;50.846;4.078;2022-08-19T12:58:22;25.60;99.90
20658;DHT22;10488;50.846;4.078;2022-08-19T13:00:48;25.50;99.90
20658;DHT22;10488;50.846;4.078;2022-08-19T13:03:14;25.50;99.90
20658;DHT22;10488;50.846;4.078;2022-08-19T13:05:41;25.60;99.90
20658;DHT22;10488;50.846;4.078;2022-08-19T13:08:07;25.50;99.90
20658;DHT22;10488;50.846;4.078;2022-08-19T13:10:34;25.90;99.90
20658;DHT22;10488;50.846;4.078;2022-08-19T13:13:05;26.10;99.90
20658;DHT22;10488;50.846;4.078;2022-08-19T13:15:34;26.20;99.90
20658;DHT22;10488;50.846;4.078;2022-08-19T13:18:01;26.50;99.90
20658;DHT22;10488;50.846;4.078;2022-08-19T13:20:27;26.50;99.90
20658;DHT22;10488;50.846;4.078;2022-08-19T13:22:54;26.70;99.90
20658;DHT22;10488;50.846;4.078;2022-08-19T13:25:20;26.60;99.90
20658;DHT22;10488;50.846;4.078;2022-08-19T13:27:47;26.60;99.90
20658;DHT22;10488;50.846;4.078;2022-08-19T13:30:15;25.50;99.90
20658;DHT22;10488;50.846;4.078;2022-08-19T13:33:00;24.70;99.90
20658;DHT22;10488;50.846;4.078;2022-08-19T13:38:10;23.70;99.90
20658;DHT22;10488;50.846;4.078;2022-08-19T13:40:37;23.50;99.90
20658;DHT22;10488;50.846;4.078;2022-08-19T13:43:04;23.40;99.90
20658;DHT22;10488;50.846;4.078;2022-08-19T13:45:31;23.20;99.90
20658;DHT22;10488;50.846;4.078;2022-08-19T13:48:03;23.20;99.90
20658;DHT22;10488;50.846;4.078;2022-08-19T13:50:33;23.70;99.90
20658;DHT22;10488;50.846;4.078;2022-08-19T13:52:59;23.60;99.90
20658;DHT22;10488;50.846;4.078;2022-08-19T13:55:25;23.60;99.90
20658;DHT22;10488;50.846;4.078;2022-08-19T13:57:54;23.90;99.90
20658;DHT22;10488;50.846;4.078;2022-08-19T14:00:21;23.80;99.90
20658;DHT22;10488;50.846;4.078;2022-08-19T14:02:51;24.00;99.90
20658;DHT22;10488;50.846;4.078;2022-08-19T14:05:18;24.10;99.90
20658;DHT22;10488;50.846;4.078;2022-08-19T14:07:44;23.90;99.90
20658;DHT22;10488;50.846;4.078;2022-08-19T14:10:12;23.90;99.90
20658;DHT22;10488;50.846;4.078;2022-08-19T14:12:38;23.80;99.90
20658;DHT22;10488;50.846;4.078;2022-08-19T14:15:05;23.90;99.90
20658;DHT22;10488;50.846;4.078;2022-08-19T14:17:31;24.00;99.90
20658;DHT22;10488;50.846;4.078;2022-08-19T14:19:59;23.50;99.90
20658;DHT22;10488;50.846;4.078;2022-08-19T14:22:26;23.40;99.90
20658;DHT22;10488;50.846;4.078;2022-08-19T14:24:51;23.70;99.90
20658;DHT22;10488;50.846;4.078;2022-08-19T14:27:17;24.10;99.90
20658;DHT22;10488;50.846;4.078;2022-08-19T14:29:43;24.40;99.90
20658;DHT22;10488;50.846;4.078;2022-08-19T14:32:10;24.40;99.90
20658;DHT22;10488;50.846;4.078;2022-08-19T14:34:35;24.80;99.90
20658;DHT22;10488;50.846;4.078;2022-08-19T14:37:02;24.80;99.90
20658;DHT22;10488;50.846;4.078;2022-08-19T14:39:28;24.80;99.90
20658;DHT22;10488;50.846;4.078;2022-08-19T14:41:53;24.80;99.90
20658;DHT22;10488;50.846;4.078;2022-08-19T14:44:19;24.80;99.90
20658;DHT22;10488;50.846;4.078;2022-08-19T14:46:45;25.10;99.90
20658;DHT22;10488;50.846;4.078;2022-08-19T14:49:11;25.40;99.90
20658;DHT22;10488;50.846;4.078;2022-08-19T14:51:37;24.90;99.90
20658;DHT22;10488;50.846;4.078;2022-08-19T14:54:04;25.10;99.90
20658;DHT22;10488;50.846;4.078;2022-08-19T14:56:30;24.90;99.90
20658;DHT22;10488;50.846;4.078;2022-08-19T14:58:56;25.00;99.90
20658;DHT22;10488;50.846;4.078;2022-08-19T15:01:25;25.10;99.90
20658;DHT22;10488;50.846;4.078;2022-08-19T15:03:51;24.80;99.90
20658;DHT22;10488;50.846;4.078;2022-08-19T15:06:21;24.90;99.90
20658;DHT22;10488;50.846;4.078;2022-08-19T15:08:48;24.90;99.90
20658;DHT22;10488;50.846;4.078;2022-08-19T15:11:17;24.10;99.90
20658;DHT22;10488;50.846;4.078;2022-08-19T15:13:45;23.80;99.90
20658;DHT22;10488;50.846;4.078;2022-08-19T15:16:12;23.30;99.90
20658;DHT22;10488;50.846;4.078;2022-08-19T15:18:40;23.10;99.90
20658;DHT22;10488;50.846;4.078;2022-08-19T15:21:11;22.80;99.90
20658;DHT22;10488;50.846;4.078;2022-08-19T15:23:38;22.80;99.90
20658;DHT22;10488;50.846;4.078;2022-08-19T15:26:04;23.00;99.90
20658;DHT22;10488;50.846;4.078;2022-08-19T15:28:30;23.00;99.90
20658;DHT22;10488;50.846;4.078;2022-08-19T15:30:57;22.70;99.90
20658;DHT22;10488;50.846;4.078;2022-08-19T15:33:24;22.40;99.90
20658;DHT22;10488;50.846;4.078;2022-08-19T15:35:50;21.90;99.90
20658;DHT22;10488;50.846;4.078;2022-08-19T15:38:17;21.60;99.90
20658;DHT22;10488;50.846;4.078;2022-08-19T15:40:48;21.60;99.90
20658;DHT22;10488;50.846;4.078;2022-08-19T15:43:15;21.40;99.90
20658;DHT22;10488;50.846;4.078;2022-08-19T15:45:43;21.40;99.90
20658;DHT22;10488;50.846;4.078;2022-08-19T15:48:09;21.40;99.90
20658;DHT22;10488;50.846;4.078;2022-08-19T15:50:35;21.40;99.90
20658;DHT22;10488;50.846;4.078;2022-08-19T15:53:04;21.50;99.90